Flight Track Log - Related Links

Times and Time Zones

All times are in EDT time to prevent confusion due to time zone crossing. See the CSC8648 flight status page for this flight to view local times or setup timezone preferences in your user account.

Time Position Orientation Groundspeed Altitude Reporting Facility
EDT Latitude Longitude Course Direction KTS MPH feet Rate Location/Type
Sat 04:19:04 PM 15.2333 145.6333 293° West 280 322 7,400  Level Guam Center
Sat 04:20:04 PM 15.2667 145.5500 293° West 300 345 10,000 1,884 Climbing Guam Center
Sat 04:21:00 PM 15.5979 145.1437 293° West  Level Estimated
Sat 04:21:05 PM 15.3000 145.4667 293° West 330 380 11,200  Level Guam Center
Sat 04:22:00 PM 15.6775 145.0458 289° West  Level Estimated
Sat 04:22:05 PM 15.3333 145.3500 287° West 370 426 13,100  Level Guam Center
Sat 04:23:00 PM 15.7571 144.9478 289° West  Level Estimated
Sat 04:23:05 PM 15.3833 145.2500 297° West 400 460 15,200  Level Guam Center
Sat 04:24:00 PM 15.8367 144.8498 293° West  Level Estimated
Sat 04:24:05 PM 15.4167 145.1500 289° West 420 483 16,800  Level Guam Center
Sat 04:25:05 PM 15.4833 145.0500 305° West 410 472 18,600 1,750 Climbing Guam Center
Sat 04:26:05 PM 15.5167 144.9333 287° West 410 472 20,300 1,686 Climbing Guam Center
Sat 04:27:06 PM 15.5667 144.8167 294° West 440 506 22,000 1,488 Climbing Guam Center
Sat 04:28:06 PM 15.6000 144.7000 287° West 450 518 23,300 1,150 Climbing Guam Center
Sat 04:29:06 PM 15.6500 144.5667 291° West 460 529 24,300 1,150 Climbing Guam Center
Sat 04:30:06 PM 15.7000 144.4333 291° West 470 541 25,600 1,650 Climbing Guam Center
Sat 04:31:06 PM 15.7333 144.3167 287° West 470 541 27,600 1,686 Climbing Guam Center
Sat 04:32:07 PM 15.7833 144.1833 291° West 460 529 29,000 1,339 Climbing Guam Center
Sat 04:33:07 PM 15.8500 144.0667 301° West 480 552 30,300 1,200 Climbing Guam Center
Sat 04:34:07 PM 15.9167 143.9500 301° West 490 564 31,400 1,250 Climbing Guam Center
Sat 04:35:07 PM 15.9833 143.8333 301° West 480 552 32,800 1,450 Climbing Guam Center
Sat 04:36:07 PM 16.0500 143.7167 301° West 470 541 34,300 1,300 Climbing Guam Center
Sat 04:37:07 PM 16.1000 143.5833 291° West 470 541 35,400 1,350 Climbing Guam Center
Sat 04:38:07 PM 16.1500 143.4667 294° West 460 529 37,000 1,300 Climbing Guam Center
Sat 04:39:07 PM 16.1667 143.3333 277° West 450 518 38,000 500 Climbing Guam Center
Sat 04:40:07 PM 16.2000 143.2000 285° West 460 529 38,000  Level Guam Center
Sat 04:41:08 PM 16.2167 143.0667 277° West 470 541 38,000  Level Guam Center
Sat 04:42:08 PM 16.2333 142.9167 277° West 480 552 38,000  Level Guam Center
Sat 04:43:08 PM 16.2667 142.7833 285° West 490 564 38,000  Level Guam Center
Sat 04:44:08 PM 16.3000 142.6500 285° West 470 541 38,000  Level Guam Center
Sat 04:45:08 PM 16.3333 142.5167 285° West 480 552 38,000  Level Guam Center
Sat 04:46:08 PM 16.3833 142.4000 294° West 480 552 38,000  Level Guam Center
Sat 04:47:09 PM 16.4333 142.2667 291° West 480 552 38,000  Level Guam Center
Sat 04:48:09 PM 16.4833 142.1333 291° West 480 552 38,000  Level Guam Center
Sat 04:49:09 PM 16.5333 142.0167 294° West 480 552 38,000  Level Guam Center
Sat 04:49:45 PM 16.5833 141.9500 319° Northwest 481 554 38,000  Level Oakland Oceanic (ODAPS)
Sat 04:57:56 PM 17.3000 141.3000 319° Northwest 474 545 38,000  Level Oakland Oceanic (ODAPS)
Sat 04:58:00 PM 17.3929 141.2141 319° Northwest 481 554 38,000  Level FlightAware Transoceanic
Sat 04:59:00 PM 17.4939 141.1217 319° Northwest 481 554 38,000  Level FlightAware Transoceanic
Sat 05:00:00 PM 17.5949 141.0292 319° Northwest 481 554 38,000  Level FlightAware Transoceanic
Sat 05:01:00 PM 17.6958 140.9365 319° Northwest 481 554 38,000  Level FlightAware Transoceanic
Sat 05:02:00 PM 17.7967 140.8438 319° Northwest 481 554 38,000  Level FlightAware Transoceanic
Sat 05:03:00 PM 17.8975 140.7509 319° Northwest 481 554 38,000  Level FlightAware Transoceanic
Sat 05:04:00 PM 17.9864 140.6698 319° Northwest 474 545 38,000  Level FlightAware Transoceanic
Sat 05:05:00 PM 18.0843 140.5794 319° Northwest 474 545 38,000  Level FlightAware Transoceanic
Sat 05:05:53 PM 18.2000 140.4833 319° Northwest 482 555 38,000  Level Oakland Oceanic (ODAPS)
Sat 05:06:00 PM 18.1821 140.4888 319° Northwest 474 545 38,000  Level FlightAware Transoceanic
Sat 05:06:23 PM 18.2000 140.4833 319° Northwest 442 509 38,000  Level Oakland Oceanic (ODAPS)
Sat 05:07:00 PM 18.2799 140.3982 319° Northwest 474 545 38,000  Level FlightAware Transoceanic
Sat 05:08:00 PM 18.3777 140.3075 319° Northwest 474 545 38,000  Level FlightAware Transoceanic
Sat 05:09:00 PM 18.4754 140.2166 319° Northwest 474 545 38,000  Level FlightAware Transoceanic
Sat 05:10:00 PM 18.5731 140.1257 319° Northwest 474 545 38,000  Level FlightAware Transoceanic
Sat 05:10:43 PM 18.6333 140.0667 319° Northwest 449 517 38,000  Level Oakland Oceanic (ODAPS)
Sat 05:11:00 PM 18.6707 140.0347 319° Northwest 474 545 38,000  Level FlightAware Transoceanic
Sat 05:12:00 PM 18.7825 139.9391 318° Northwest 442 509 38,000  Level FlightAware Transoceanic
Sat 05:13:00 PM 18.8794 139.8480 318° Northwest 442 509 38,000  Level FlightAware Transoceanic
Sat 05:13:47 PM 18.6333 140.0667 319° Northwest 469 540 38,000  Level Oakland Oceanic (ODAPS)
Sat 05:14:00 PM 18.9763 139.7569 318° Northwest 442 509 38,000  Level FlightAware Transoceanic
Sat 05:15:00 PM 19.0731 139.6656 318° Northwest 442 509 38,000  Level FlightAware Transoceanic
Sat 05:16:00 PM 19.2039 139.5327 318° Northwest 449 517 38,000  Level FlightAware Transoceanic
Sat 05:17:00 PM 19.2988 139.4433 318° Northwest 449 517 38,000  Level FlightAware Transoceanic
Sat 05:18:00 PM 19.3937 139.3539 318° Northwest 449 517 38,000  Level FlightAware Transoceanic
Sat 05:19:00 PM 19.4886 139.2643 318° Northwest 449 517 38,000  Level FlightAware Transoceanic
Sat 05:20:00 PM 19.5834 139.1747 318° Northwest 469 540 38,000  Level FlightAware Transoceanic
Sat 05:21:00 PM 19.6781 139.0849 318° Northwest 469 540 38,000  Level FlightAware Transoceanic
Sat 05:22:00 PM 19.7729 138.9950 318° Northwest 469 540 38,000  Level FlightAware Transoceanic
Sat 05:23:00 PM 19.8675 138.9050 318° Northwest 469 540 38,000  Level FlightAware Transoceanic
Sat 05:24:00 PM 19.9622 138.8150 318° Northwest 469 540 38,000  Level FlightAware Transoceanic
Sat 05:25:00 PM 20.0567 138.7247 318° Northwest 469 540 38,000  Level FlightAware Transoceanic
Sat 05:26:00 PM 20.1513 138.6344 318° Northwest 469 540 38,000  Level FlightAware Transoceanic
Sat 05:27:00 PM 20.2458 138.5440 318° Northwest 469 540 38,000  Level FlightAware Transoceanic
Sat 05:28:00 PM 20.3402 138.4535 318° Northwest 469 540 38,000  Level FlightAware Transoceanic
Sat 05:29:00 PM 20.4346 138.3629 318° Northwest 469 540 38,000  Level FlightAware Transoceanic
Sat 05:30:00 PM 20.5290 138.2721 318° Northwest 469 540 38,000  Level FlightAware Transoceanic
Sat 05:31:00 PM 20.6233 138.1812 318° Northwest 461 531 38,000  Level FlightAware Transoceanic
Sat 05:32:00 PM 20.7175 138.0903 318° Northwest 461 531 38,000  Level FlightAware Transoceanic
Sat 05:33:00 PM 20.8117 137.9992 318° Northwest 461 531 38,000  Level FlightAware Transoceanic
Sat 05:34:00 PM 20.9059 137.9080 318° Northwest 461 531 38,000  Level FlightAware Transoceanic
Sat 05:35:00 PM 21.0000 137.8167 330° Northwest 461 531 38,000  Level FlightAware Transoceanic
Sat 05:36:00 PM 21.1131 137.7481 330° Northwest 461 531 38,000  Level FlightAware Transoceanic
Sat 05:37:00 PM 21.2262 137.6794 330° Northwest 461 531 38,000  Level FlightAware Transoceanic
Sat 05:38:00 PM 21.3392 137.6105 330° Northwest 461 531 38,000  Level FlightAware Transoceanic
Sat 05:39:00 PM 21.4522 137.5416 330° Northwest 461 531 38,000  Level FlightAware Transoceanic
Sat 05:40:00 PM 21.5652 137.4726 330° Northwest 461 531 38,000  Level FlightAware Transoceanic
Sat 05:41:00 PM 21.6781 137.4035 330° Northwest 461 531 38,000  Level FlightAware Transoceanic
Sat 05:42:00 PM 21.7911 137.3342 330° Northwest 461 531 38,000  Level FlightAware Transoceanic
Sat 05:43:00 PM 21.9039 137.2649 330° Northwest 461 531 38,000  Level FlightAware Transoceanic
Sat 05:44:00 PM 22.0168 137.1954 330° Northwest 461 531 38,000  Level FlightAware Transoceanic
Sat 05:45:00 PM 22.1297 137.1259 330° Northwest 461 531 38,000  Level FlightAware Transoceanic
Sat 05:46:00 PM 22.2425 137.0562 330° Northwest 461 531 38,000  Level FlightAware Transoceanic
Sat 05:47:00 PM 22.3552 136.9864 330° Northwest 461 531 38,000  Level FlightAware Transoceanic
Sat 05:48:00 PM 22.4680 136.9165 330° Northwest 461 531 38,000  Level FlightAware Transoceanic
Sat 05:49:00 PM 22.5807 136.8465 330° Northwest 461 531 38,000  Level FlightAware Transoceanic
Sat 05:50:00 PM 22.6934 136.7763 330° Northwest 461 531 38,000  Level FlightAware Transoceanic
Sat 05:51:00 PM 22.8060 136.7061 330° Northwest 461 531 38,000  Level FlightAware Transoceanic
Sat 05:52:00 PM 22.9187 136.6357 330° Northwest 461 531 38,000  Level FlightAware Transoceanic
Sat 05:53:00 PM 23.0313 136.5652 330° Northwest 461 531 38,000  Level FlightAware Transoceanic
Sat 05:54:00 PM 23.1438 136.4946 330° Northwest 461 531 38,000  Level FlightAware Transoceanic
Sat 05:55:00 PM 23.2563 136.4239 330° Northwest 461 531 38,000  Level FlightAware Transoceanic
Sat 05:56:00 PM 23.3689 136.3531 330° Northwest 461 531 38,000  Level FlightAware Transoceanic
Sat 05:57:00 PM 23.4813 136.2821 330° Northwest 461 531 38,000  Level FlightAware Transoceanic
Sat 05:58:00 PM 23.5938 136.2110 330° Northwest 461 531 38,000  Level FlightAware Transoceanic
Sat 05:59:00 PM 23.7062 136.1398 330° Northwest 461 531 38,000  Level FlightAware Transoceanic
Sat 06:00:00 PM 23.8185 136.0685 330° Northwest 461 531 38,000  Level FlightAware Transoceanic
Sat 06:01:00 PM 23.9309 135.9971 330° Northwest 461 531 38,000  Level FlightAware Transoceanic
Sat 06:02:00 PM 24.0432 135.9255 330° Northwest 461 531 38,000  Level FlightAware Transoceanic
Sat 06:03:00 PM 24.1554 135.8538 330° Northwest 461 531 38,000  Level FlightAware Transoceanic
Sat 06:04:00 PM 24.2677 135.7820 330° Northwest 461 531 38,000  Level FlightAware Transoceanic
Sat 06:05:00 PM 24.3799 135.7100 330° Northwest 461 531 38,000  Level FlightAware Transoceanic
Sat 06:06:00 PM 24.4921 135.6379 330° Northwest 461 531 38,000  Level FlightAware Transoceanic
Sat 06:07:00 PM 24.6042 135.5657 330° Northwest 461 531 38,000  Level FlightAware Transoceanic
Sat 06:08:00 PM 24.7163 135.4934 330° Northwest 461 531 38,000  Level FlightAware Transoceanic
Sat 06:09:00 PM 24.8284 135.4209 330° Northwest 461 531 38,000  Level FlightAware Transoceanic
Sat 06:10:00 PM 24.9404 135.3483 330° Northwest 461 531 38,000  Level FlightAware Transoceanic
Sat 06:11:00 PM 25.0524 135.2756 330° Northwest 461 531 38,000  Level FlightAware Transoceanic
Sat 06:12:00 PM 25.1643 135.2027 329° Northwest 461 531 38,000  Level FlightAware Transoceanic
Sat 06:13:00 PM 25.2763 135.1297 329° Northwest 461 531 38,000  Level FlightAware Transoceanic
Sat 06:14:00 PM 25.3881 135.0566 329° Northwest 461 531 38,000  Level FlightAware Transoceanic
Sat 06:15:00 PM 25.4369 134.9601 299° West  Level Estimated
Sat 06:16:00 PM 25.4857 134.8636 299° West  Level Estimated
Sat 06:17:00 PM 25.5343 134.7670 299° West  Level Estimated
Sat 06:18:00 PM 25.5829 134.6703 299° West  Level Estimated
Sat 06:19:00 PM 25.6315 134.5735 299° West  Level Estimated
Sat 06:20:00 PM 25.6799 134.4767 299° West  Level Estimated
Sat 06:21:00 PM 25.7283 134.3798 299° West  Level Estimated
Sat 06:22:00 PM 25.7767 134.2827 299° West  Level Estimated
Sat 06:23:00 PM 25.8249 134.1857 299° West  Level Estimated
Sat 06:24:00 PM 25.8732 134.0885 299° West  Level Estimated
Sat 06:25:00 PM 25.9213 133.9913 299° West  Level Estimated
Sat 06:26:00 PM 25.9694 133.8940 299° West  Level Estimated
Sat 06:27:00 PM 26.0174 133.7966 299° West  Level Estimated
Sat 06:28:00 PM 26.0654 133.6991 299° West  Level Estimated
Sat 06:29:00 PM 26.1133 133.6015 299° West  Level Estimated
Sat 06:30:00 PM 26.1611 133.5039 299° West  Level Estimated
Sat 06:31:00 PM 26.2088 133.4061 299° West  Level Estimated
Sat 06:32:00 PM 26.2565 133.3083 299° West  Level Estimated
Sat 06:33:00 PM 26.3041 133.2105 299° West  Level Estimated
Sat 06:34:00 PM 26.3517 133.1125 298° West  Level Estimated
Sat 06:35:00 PM 26.3992 133.0145 298° West  Level Estimated
Sat 06:36:00 PM 26.4466 132.9164 298° West  Level Estimated
Sat 06:37:00 PM 26.4940 132.8181 298° West  Level Estimated
Sat 06:38:00 PM 26.5413 132.7199 298° West  Level Estimated
Sat 06:39:00 PM 26.5885 132.6215 298° West  Level Estimated
Sat 06:40:00 PM 26.6356 132.5230 298° West  Level Estimated
Sat 06:41:00 PM 26.6827 132.4245 298° West  Level Estimated
Sat 06:42:00 PM 26.7297 132.3259 298° West  Level Estimated
Sat 06:43:00 PM 26.7767 132.2272 298° West  Level Estimated
Sat 06:44:00 PM 26.8236 132.1284 298° West  Level Estimated
Sat 06:45:00 PM 26.8704 132.0296 298° West  Level Estimated
Sat 06:46:00 PM 26.9171 131.9306 298° West  Level Estimated
Sat 06:47:00 PM 26.9638 131.8316 298° West  Level Estimated
Sat 06:48:00 PM 27.0104 131.7325 298° West  Level Estimated
Sat 06:49:00 PM 27.0569 131.6333 298° West  Level Estimated
Sat 06:50:00 PM 27.1034 131.5341 298° West  Level Estimated
Sat 06:51:00 PM 27.1498 131.4347 298° West  Level Estimated
Sat 06:52:00 PM 27.1961 131.3353 298° West  Level Estimated
Sat 06:53:00 PM 27.2424 131.2358 298° West  Level Estimated
Sat 06:54:00 PM 27.2886 131.1362 298° West  Level Estimated
Sat 06:54:24 PM 29.6290 131.7190 298° West 434 499 38,000  Level FlightAware ADS-B
Sat 06:55:00 PM 27.3347 131.0365 298° West  Level Estimated
Sat 06:55:06 PM 29.7060 131.6620 327° Northwest 431 496 38,000  Level FlightAware ADS-B
Sat 06:55:38 PM 29.7590 131.6230 327° Northwest 431 496 38,000  Level FlightAware ADS-B
Sat 06:56:27 PM 29.8400 131.5630 327° Northwest 431 496 38,000  Level FlightAware ADS-B
Sat 06:57:07 PM 29.9090 131.5120 327° Northwest 432 497 38,000  Level FlightAware ADS-B
Sat 06:57:50 PM 29.9780 131.4600 327° Northwest 433 498 38,000  Level FlightAware ADS-B
Sat 06:58:30 PM 30.0470 131.4090 327° Northwest 427 491 38,000 -439 Level FlightAware ADS-B
Sat 06:59:12 PM 30.1150 131.3580 327° Northwest 432 497 37,400 -1,231 Descending FlightAware ADS-B
Sat 06:59:48 PM 30.1800 131.3090 327° Northwest 441 507 36,400 -1,000 Descending FlightAware ADS-B
Sat 07:00:36 PM 30.2550 131.2530 327° Northwest 442 509 36,000 -233 Descending FlightAware ADS-B
Sat 07:01:31 PM 30.3490 131.1620 320° Northwest 459 528 36,000 -442 Level FlightAware ADS-B
Sat 07:02:11 PM 30.3900 131.0780 300° West 468 539 35,300 -1,256 Descending FlightAware ADS-B
Sat 07:02:57 PM 30.4400 130.9780 300° West 480 552 34,200 -876 Descending FlightAware ADS-B
Sat 07:03:40 PM 30.4870 130.8820 300° West 478 550 34,000 -145 Descending FlightAware ADS-B
Sat 07:04:20 PM 30.5320 130.7900 300° West 485 558 34,000  Level FlightAware ADS-B
Sat 07:05:05 PM 30.5820 130.6890 300° West 484 557 34,000  Level FlightAware ADS-B
Sat 07:05:45 PM 30.6270 130.5960 299° West 480 552 34,000  Level FlightAware ADS-B
Sat 07:06:25 PM 30.6690 130.5090 299° West 479 551 34,000  Level FlightAware ADS-B
Sat 07:07:10 PM 30.7180 130.4090 300° West 477 549 34,000  Level FlightAware ADS-B
Sat 07:07:46 PM 30.7560 130.3310 300° West 476 548 34,000  Level FlightAware ADS-B
Sat 07:08:25 PM 30.7980 130.2420 299° West 474 545 34,000  Level FlightAware ADS-B
Sat 07:09:10 PM 30.8450 130.1450 299° West 474 545 34,000  Level FlightAware ADS-B
Sat 07:09:40 PM 30.8790 130.0760 300° West 474 545 34,000  Level FlightAware ADS-B
Sat 07:10:25 PM 30.9280 129.9730 299° West 470 541 34,000  Level FlightAware ADS-B
Sat 07:11:05 PM 30.9700 129.8850 299° West 468 539 34,000  Level FlightAware ADS-B
Sat 07:11:50 PM 31.0160 129.7890 299° West 468 539 34,000 -750 Level FlightAware ADS-B
Sat 07:12:41 PM 31.0700 129.6760 299° West 480 552 32,800 -1,224 Descending FlightAware ADS-B
Sat 07:13:28 PM 31.1230 129.5640 299° West 487 560 32,000 -539 Descending FlightAware ADS-B
Sat 07:14:10 PM 31.1660 129.4730 299° West 487 560 32,000  Level FlightAware ADS-B
Sat 07:14:48 PM 31.2080 129.3850 299° West 490 564 32,000  Level FlightAware ADS-B
Sat 07:15:33 PM 31.2580 129.2790 299° West 491 565 32,000  Level FlightAware ADS-B
Sat 07:16:18 PM 31.3070 129.1740 299° West 491 565 32,000  Level FlightAware ADS-B
Sat 07:16:58 PM 31.3490 129.0840 299° West 494 568 32,000  Level FlightAware ADS-B
Sat 07:17:36 PM 31.3870 129.0030 299° West 494 568 32,000  Level FlightAware ADS-B
Sat 07:18:19 PM 31.4390 128.8920 299° West 494 568 32,000  Level FlightAware ADS-B
Sat 07:18:56 PM 31.4790 128.8050 298° West 493 567 32,000  Level FlightAware ADS-B
Sat 07:19:47 PM 31.5350 128.6850 299° West 490 564 32,000  Level FlightAware ADS-B
Sat 07:20:34 PM 31.5850 128.5760 298° West 490 564 32,000  Level FlightAware ADS-B
Sat 07:21:30 PM 31.6450 128.4460 298° West 490 564 32,000  Level FlightAware ADS-B
Sat 07:22:08 PM 31.6850 128.3600 299° West 487 560 32,000  Level FlightAware ADS-B
Sat 07:22:49 PM 31.7280 128.2660 298° West 485 558 32,000  Level FlightAware ADS-B
Sat 07:23:29 PM 31.7700 128.1740 298° West 485 558 32,000  Level FlightAware ADS-B
Sat 07:24:09 PM 31.8130 128.0790 298° West 487 560 32,000  Level FlightAware ADS-B
Sat 07:24:54 PM 31.8610 127.9740 298° West 487 560 32,000  Level FlightAware ADS-B
Sat 07:25:42 PM 31.9050 127.8760 298° West 487 560 32,000  Level FlightAware ADS-B
Sat 07:26:18 PM 31.9380 127.8040 298° West 487 560 32,000  Level FlightAware ADS-B
Sat 07:27:06 PM 31.9810 127.7090 298° West 487 560 32,000  Level FlightAware ADS-B
Sat 07:27:42 PM 32.0130 127.6370 298° West 487 560 32,000  Level FlightAware ADS-B
Sat 07:28:30 PM 32.0560 127.5410 298° West 487 560 32,000  Level FlightAware ADS-B
Sat 07:29:07 PM 32.0900 127.4670 298° West 487 560 32,000  Level FlightAware ADS-B
Sat 07:29:55 PM 32.1330 127.3710 298° West 487 560 32,000  Level FlightAware ADS-B
Sat 07:30:31 PM 32.1650 127.3000 298° West 487 560 32,000  Level FlightAware ADS-B
Sat 07:31:07 PM 32.1980 127.2280 298° West 487 560 32,000  Level FlightAware ADS-B
Sat 07:31:55 PM 32.2410 127.1320 298° West 487 560 32,000  Level FlightAware ADS-B
Sat 07:32:31 PM 32.2730 127.0600 298° West 487 560 32,000  Level FlightAware ADS-B
Sat 07:33:20 PM 32.3170 126.9620 298° West 487 560 32,000  Level FlightAware ADS-B
Sat 07:33:57 PM 32.3500 126.8880 298° West 487 560 32,000  Level FlightAware ADS-B
Sat 07:34:45 PM 32.3940 126.7920 299° West 487 560 32,000  Level FlightAware ADS-B
Sat 07:37:00 PM 32.3353 126.5352 255° West  Level Estimated
Sat 07:38:00 PM 32.3091 126.4212 255° West  Level Estimated
Sat 07:39:00 PM 32.2827 126.3073 255° West  Level Estimated
Sat 07:40:00 PM 32.2562 126.1934 255° West  Level Estimated
Sat 07:41:00 PM 32.2297 126.0796 255° West  Level Estimated
Sat 07:42:00 PM 32.2030 125.9659 255° West  Level Estimated
Sat 07:43:00 PM 32.1763 125.8522 254° West  Level Estimated
Sat 07:44:00 PM 32.1494 125.7386 254° West  Level Estimated
Sat 07:45:00 PM 32.1224 125.6251 254° West  Level Estimated
Sat 07:46:00 PM 32.0953 125.5116 254° West  Level Estimated
Sat 07:47:00 PM 32.0682 125.3982 254° West  Level Estimated
Sat 07:48:00 PM 32.0409 125.2849 254° West  Level Estimated
Sat 07:49:00 PM 32.0135 125.1716 254° West  Level Estimated
Sat 07:50:00 PM 31.9861 125.0584 254° West  Level Estimated
Sat 07:51:00 PM 31.9585 124.9453 254° West  Level Estimated
Sat 07:52:00 PM 31.9308 124.8322 254° West  Level Estimated
Sat 07:53:00 PM 31.9031 124.7192 254° West  Level Estimated
Sat 07:54:00 PM 31.8752 124.6063 254° West  Level Estimated
Sat 07:55:00 PM 31.8472 124.4934 254° West  Level Estimated
Sat 07:56:00 PM 31.8192 124.3806 254° West  Level Estimated
Sat 07:57:00 PM 31.7910 124.2679 254° West  Level Estimated
Sat 07:58:00 PM 31.7627 124.1553 254° West  Level Estimated
Sat 07:59:00 PM 31.7343 124.0427 254° West  Level Estimated
Sat 08:00:00 PM 31.7059 123.9302 253° West  Level Estimated
Sat 08:01:00 PM 31.6773 123.8177 253° West  Level Estimated
Sat 08:02:00 PM 31.6486 123.7053 253° West  Level Estimated
Sat 08:03:00 PM 31.6199 123.5930 253° West  Level Estimated
Sat 08:04:00 PM 31.5910 123.4808 253° West  Level Estimated
Sat 08:05:00 PM 31.5621 123.3686 253° West  Level Estimated
Sat 08:06:00 PM 31.5330 123.2565 253° West  Level Estimated
Sat 08:07:00 PM 31.5038 123.1445 253° West  Level Estimated
Sat 08:08:00 PM 31.4746 123.0325 253° West  Level Estimated
Sat 08:09:00 PM 31.4452 122.9206 253° West  Level Estimated
Sat 08:10:00 PM 31.4158 122.8088 253° West  Level Estimated
Sat 08:11:00 PM 31.3862 122.6971 253° West  Level Estimated
Sat 08:12:00 PM 31.3566 122.5854 253° West  Level Estimated
Sat 08:13:00 PM 31.3269 122.4738 253° West  Level Estimated
Sat 08:14:00 PM 31.2970 122.3622 253° West  Level Estimated
Sat 08:15:00 PM 31.2671 122.2508 253° West  Level Estimated
Sat 08:16:00 PM 31.2371 122.1394 253° West  Level Estimated
Sat 08:17:00 PM 31.2069 122.0281 252° West  Level Estimated
Sat 08:18:00 PM 31.1767 121.9168 252° West  Level Estimated
Sat 08:19:00 PM 31.1464 121.8056 252° West  Level Estimated
Sat 08:20:00 PM 31.1428 121.7924 252° West  Level Estimated
Sat 08:21:00 PM 31.1428 121.7924 221° Southwest  Level Estimated
Sat 08:22:00 PM 31.1428 121.7924 221° Southwest  Level Estimated
Sat 08:23:00 PM 31.1428 121.7924 221° Southwest  Level Estimated
Sat 08:24:00 PM 31.1428 121.7924 221° Southwest  Level Estimated
Sat 08:25:00 PM 31.1428 121.7924 221° Southwest  Level Estimated
Sat 08:26:00 PM 31.1428 121.7924 221° Southwest  Level Estimated
Sat 08:27:00 PM 31.1428 121.7924 221° Southwest  Level Estimated
Sat 08:28:00 PM 31.1428 121.7924 221° Southwest  Level Estimated
Sat 08:29:00 PM 31.1428 121.7924 221° Southwest  Level Estimated
Sat 08:30:00 PM 31.1428 121.7924 221° Southwest  Level Estimated
Sat 08:31:00 PM 31.1428 121.7924 221° Southwest  Level Estimated
Sat 08:32:00 PM 31.1428 121.7924 221° Southwest  Level Estimated
Sat 08:33:00 PM 31.1428 121.7924 221° Southwest  Level Estimated
Sat 08:34:00 PM 31.1428 121.7924 221° Southwest  Level Estimated
Sat 08:35:00 PM 31.1428 121.7924 221° Southwest  Level Estimated
Sat 08:36:00 PM 31.1428 121.7924 221° Southwest  Level Estimated
Sat 08:37:00 PM 31.1428 121.7924 221° Southwest  Level Estimated
Sat 08:38:00 PM 31.1428 121.7924 221° Southwest  Level Estimated
Sat 08:39:00 PM 31.1428 121.7924 221° Southwest  Level Estimated
Sat 08:40:00 PM 31.1428 121.7924 221° Southwest  Level Estimated
Sat 08:41:00 PM 31.1428 121.7924 221° Southwest  Level Estimated
Sat 08:42:00 PM 31.1428 121.7924 221° Southwest  Level Estimated
Sat 08:43:00 PM 31.1428 121.7924 221° Southwest  Level Estimated
Sat 08:44:00 PM 31.1428 121.7924 221° Southwest  Level Estimated
Sat 08:45:00 PM 31.1428 121.7924 221° Southwest  Level Estimated

Login

Don't have an account? Register now (free) for customized features, flight alerts, and more!